sensor_id;sensor_type;location;lat;lon;timestamp;P1;durP1;ratioP1;P2;durP2;ratioP2
179;SDS011;78;48.788;9.010;2022-12-07T00:01:45;31.63;;;11.87;;
179;SDS011;78;48.788;9.010;2022-12-07T00:04:12;32.83;;;12.37;;
179;SDS011;78;48.788;9.010;2022-12-07T00:06:40;32.17;;;12.50;;
179;SDS011;78;48.788;9.010;2022-12-07T00:09:07;31.87;;;12.80;;
179;SDS011;78;48.788;9.010;2022-12-07T00:11:35;34.10;;;13.33;;
179;SDS011;78;48.788;9.010;2022-12-07T00:14:02;34.10;;;12.50;;
179;SDS011;78;48.788;9.010;2022-12-07T00:16:30;31.80;;;11.70;;
179;SDS011;78;48.788;9.010;2022-12-07T00:18:56;31.17;;;11.80;;
179;SDS011;78;48.788;9.010;2022-12-07T00:21:25;33.50;;;12.07;;
179;SDS011;78;48.788;9.010;2022-12-07T00:23:51;29.90;;;11.63;;
179;SDS011;78;48.788;9.010;2022-12-07T00:26:25;29.70;;;11.70;;
179;SDS011;78;48.788;9.010;2022-12-07T00:28:56;29.00;;;11.17;;
179;SDS011;78;48.788;9.010;2022-12-07T00:31:24;34.20;;;11.67;;
179;SDS011;78;48.788;9.010;2022-12-07T00:33:51;30.10;;;11.60;;
179;SDS011;78;48.788;9.010;2022-12-07T00:36:21;29.20;;;11.30;;
179;SDS011;78;48.788;9.010;2022-12-07T00:38:47;31.37;;;11.80;;
179;SDS011;78;48.788;9.010;2022-12-07T00:41:18;33.00;;;12.13;;
179;SDS011;78;48.788;9.010;2022-12-07T00:43:44;34.00;;;12.53;;
179;SDS011;78;48.788;9.010;2022-12-07T00:46:11;32.87;;;12.20;;
179;SDS011;78;48.788;9.010;2022-12-07T00:48:37;30.33;;;11.67;;
179;SDS011;78;48.788;9.010;2022-12-07T00:51:04;32.27;;;12.20;;
179;SDS011;78;48.788;9.010;2022-12-07T00:53:33;39.50;;;15.20;;
179;SDS011;78;48.788;9.010;2022-12-07T00:56:04;34.57;;;13.93;;
179;SDS011;78;48.788;9.010;2022-12-07T00:58:30;38.23;;;13.37;;
179;SDS011;78;48.788;9.010;2022-12-07T01:00:59;33.67;;;12.83;;
179;SDS011;78;48.788;9.010;2022-12-07T01:03:26;35.33;;;13.80;;
179;SDS011;78;48.788;9.010;2022-12-07T01:05:53;37.00;;;13.80;;
179;SDS011;78;48.788;9.010;2022-12-07T01:08:20;36.10;;;13.53;;
179;SDS011;78;48.788;9.010;2022-12-07T01:10:47;36.37;;;14.10;;
179;SDS011;78;48.788;9.010;2022-12-07T01:13:13;35.27;;;14.53;;
179;SDS011;78;48.788;9.010;2022-12-07T01:15:40;32.67;;;13.20;;
179;SDS011;78;48.788;9.010;2022-12-07T01:18:07;31.77;;;13.00;;
179;SDS011;78;48.788;9.010;2022-12-07T01:20:34;32.97;;;12.17;;
179;SDS011;78;48.788;9.010;2022-12-07T01:23:00;33.17;;;12.57;;
179;SDS011;78;48.788;9.010;2022-12-07T01:25:26;33.20;;;12.87;;
179;SDS011;78;48.788;9.010;2022-12-07T01:27:53;33.20;;;13.90;;
179;SDS011;78;48.788;9.010;2022-12-07T01:30:19;34.07;;;13.40;;
179;SDS011;78;48.788;9.010;2022-12-07T01:32:45;34.73;;;13.43;;
179;SDS011;78;48.788;9.010;2022-12-07T01:35:11;33.13;;;13.60;;
179;SDS011;78;48.788;9.010;2022-12-07T01:37:37;33.90;;;13.03;;
179;SDS011;78;48.788;9.010;2022-12-07T01:40:04;33.70;;;13.23;;
179;SDS011;78;48.788;9.010;2022-12-07T01:42:31;35.60;;;13.43;;
179;SDS011;78;48.788;9.010;2022-12-07T01:47:43;33.47;;;12.60;;
179;SDS011;78;48.788;9.010;2022-12-07T01:50:10;33.57;;;13.63;;
179;SDS011;78;48.788;9.010;2022-12-07T01:52:36;32.90;;;13.13;;
179;SDS011;78;48.788;9.010;2022-12-07T01:55:04;34.80;;;14.00;;
179;SDS011;78;48.788;9.010;2022-12-07T01:57:32;38.30;;;12.70;;
179;SDS011;78;48.788;9.010;2022-12-07T02:00:00;31.27;;;12.07;;
179;SDS011;78;48.788;9.010;2022-12-07T02:02:27;33.63;;;13.67;;
179;SDS011;78;48.788;9.010;2022-12-07T02:04:57;32.47;;;13.37;;
179;SDS011;78;48.788;9.010;2022-12-07T02:07:24;33.73;;;13.30;;
179;SDS011;78;48.788;9.010;2022-12-07T02:09:52;33.70;;;12.83;;
179;SDS011;78;48.788;9.010;2022-12-07T02:12:19;32.37;;;12.67;;
179;SDS011;78;48.788;9.010;2022-12-07T02:14:46;31.60;;;12.27;;
179;SDS011;78;48.788;9.010;2022-12-07T02:17:20;33.17;;;12.90;;
179;SDS011;78;48.788;9.010;2022-12-07T02:25:14;31.60;;;12.50;;
179;SDS011;78;48.788;9.010;2022-12-07T02:27:45;30.37;;;11.57;;
179;SDS011;78;48.788;9.010;2022-12-07T02:30:15;32.10;;;12.40;;
179;SDS011;78;48.788;9.010;2022-12-07T02:40:54;28.97;;;11.33;;
179;SDS011;78;48.788;9.010;2022-12-07T02:43:25;32.47;;;13.57;;
179;SDS011;78;48.788;9.010;2022-12-07T02:45:53;29.90;;;11.93;;
179;SDS011;78;48.788;9.010;2022-12-07T02:48:21;32.90;;;12.40;;
179;SDS011;78;48.788;9.010;2022-12-07T02:50:49;34.03;;;12.83;;
179;SDS011;78;48.788;9.010;2022-12-07T02:53:29;31.23;;;12.37;;
179;SDS011;78;48.788;9.010;2022-12-07T02:55:55;33.00;;;12.20;;
179;SDS011;78;48.788;9.010;2022-12-07T03:03:30;31.77;;;11.97;;
179;SDS011;78;48.788;9.010;2022-12-07T03:06:06;30.80;;;12.20;;
179;SDS011;78;48.788;9.010;2022-12-07T03:08:39;33.40;;;12.20;;
179;SDS011;78;48.788;9.010;2022-12-07T03:11:13;30.07;;;10.80;;
179;SDS011;78;48.788;9.010;2022-12-07T03:13:48;28.80;;;10.87;;
179;SDS011;78;48.788;9.010;2022-12-07T03:18:44;30.30;;;11.03;;
179;SDS011;78;48.788;9.010;2022-12-07T03:21:14;30.33;;;11.80;;
179;SDS011;78;48.788;9.010;2022-12-07T03:23:41;29.87;;;10.73;;
179;SDS011;78;48.788;9.010;2022-12-07T03:26:10;33.90;;;12.40;;
179;SDS011;78;48.788;9.010;2022-12-07T03:28:39;29.87;;;11.57;;
179;SDS011;78;48.788;9.010;2022-12-07T03:31:16;31.30;;;11.60;;
179;SDS011;78;48.788;9.010;2022-12-07T03:36:11;31.63;;;11.27;;
179;SDS011;78;48.788;9.010;2022-12-07T03:38:44;29.90;;;11.77;;
179;SDS011;78;48.788;9.010;2022-12-07T03:41:44;28.90;;;10.80;;
179;SDS011;78;48.788;9.010;2022-12-07T03:44:03;29.47;;;11.27;;
179;SDS011;78;48.788;9.010;2022-12-07T03:53:57;36.10;;;13.80;;
179;SDS011;78;48.788;9.010;2022-12-07T03:56:25;34.33;;;13.97;;
179;SDS011;78;48.788;9.010;2022-12-07T03:58:52;36.97;;;13.90;;
179;SDS011;78;48.788;9.010;2022-12-07T04:01:18;34.90;;;13.77;;
179;SDS011;78;48.788;9.010;2022-12-07T04:03:45;36.20;;;12.80;;
179;SDS011;78;48.788;9.010;2022-12-07T04:06:11;32.60;;;12.50;;
179;SDS011;78;48.788;9.010;2022-12-07T04:08:37;30.83;;;12.20;;
179;SDS011;78;48.788;9.010;2022-12-07T04:11:03;32.73;;;11.83;;
179;SDS011;78;48.788;9.010;2022-12-07T04:13:30;35.80;;;12.90;;
179;SDS011;78;48.788;9.010;2022-12-07T04:16:16;33.17;;;12.17;;
179;SDS011;78;48.788;9.010;2022-12-07T04:18:43;31.83;;;12.57;;
179;SDS011;78;48.788;9.010;2022-12-07T04:21:09;30.80;;;10.90;;
179;SDS011;78;48.788;9.010;2022-12-07T04:23:35;30.10;;;11.53;;
179;SDS011;78;48.788;9.010;2022-12-07T04:26:01;33.10;;;12.40;;
179;SDS011;78;48.788;9.010;2022-12-07T04:28:28;36.33;;;13.33;;
179;SDS011;78;48.788;9.010;2022-12-07T04:30:54;30.73;;;11.60;;
179;SDS011;78;48.788;9.010;2022-12-07T04:33:21;33.30;;;12.47;;
179;SDS011;78;48.788;9.010;2022-12-07T04:35:47;33.10;;;12.80;;
179;SDS011;78;48.788;9.010;2022-12-07T04:38:14;36.10;;;13.60;;
179;SDS011;78;48.788;9.010;2022-12-07T04:40:39;32.03;;;12.60;;
179;SDS011;78;48.788;9.010;2022-12-07T04:43:06;34.60;;;12.37;;
179;SDS011;78;48.788;9.010;2022-12-07T04:45:32;35.73;;;13.50;;
179;SDS011;78;48.788;9.010;2022-12-07T04:47:58;32.13;;;11.70;;
179;SDS011;78;48.788;9.010;2022-12-07T04:50:24;32.50;;;11.50;;
179;SDS011;78;48.788;9.010;2022-12-07T04:52:51;31.90;;;11.63;;
179;SDS011;78;48.788;9.010;2022-12-07T04:55:17;31.93;;;11.03;;
179;SDS011;78;48.788;9.010;2022-12-07T04:57:43;29.03;;;10.20;;
179;SDS011;78;48.788;9.010;2022-12-07T05:00:11;30.53;;;10.60;;
179;SDS011;78;48.788;9.010;2022-12-07T05:02:37;30.80;;;11.20;;
179;SDS011;78;48.788;9.010;2022-12-07T05:05:04;30.53;;;10.53;;
179;SDS011;78;48.788;9.010;2022-12-07T05:07:30;31.47;;;12.03;;
179;SDS011;78;48.788;9.010;2022-12-07T05:09:57;37.97;;;13.23;;
179;SDS011;78;48.788;9.010;2022-12-07T05:12:23;34.63;;;12.37;;
179;SDS011;78;48.788;9.010;2022-12-07T05:14:49;35.57;;;13.03;;
179;SDS011;78;48.788;9.010;2022-12-07T05:17:15;37.47;;;13.07;;
179;SDS011;78;48.788;9.010;2022-12-07T05:19:41;32.53;;;12.07;;
179;SDS011;78;48.788;9.010;2022-12-07T05:22:08;32.27;;;11.80;;
179;SDS011;78;48.788;9.010;2022-12-07T05:24:34;29.40;;;10.73;;
179;SDS011;78;48.788;9.010;2022-12-07T05:27:00;28.10;;;9.80;;
179;SDS011;78;48.788;9.010;2022-12-07T05:29:27;31.97;;;11.43;;
179;SDS011;78;48.788;9.010;2022-12-07T05:31:54;36.87;;;13.70;;
179;SDS011;78;48.788;9.010;2022-12-07T05:34:20;29.57;;;10.93;;
179;SDS011;78;48.788;9.010;2022-12-07T05:36:46;30.40;;;10.90;;
179;SDS011;78;48.788;9.010;2022-12-07T05:39:12;29.83;;;11.20;;
179;SDS011;78;48.788;9.010;2022-12-07T05:41:39;33.50;;;12.57;;
179;SDS011;78;48.788;9.010;2022-12-07T05:44:24;36.30;;;13.60;;
179;SDS011;78;48.788;9.010;2022-12-07T05:46:50;35.13;;;12.70;;
179;SDS011;78;48.788;9.010;2022-12-07T05:49:16;33.57;;;12.47;;
179;SDS011;78;48.788;9.010;2022-12-07T05:51:42;33.83;;;12.67;;
179;SDS011;78;48.788;9.010;2022-12-07T05:54:09;31.17;;;12.30;;
179;SDS011;78;48.788;9.010;2022-12-07T05:56:35;35.77;;;12.17;;
179;SDS011;78;48.788;9.010;2022-12-07T05:59:02;41.63;;;12.30;;
179;SDS011;78;48.788;9.010;2022-12-07T06:01:48;31.80;;;12.63;;
179;SDS011;78;48.788;9.010;2022-12-07T06:04:14;34.43;;;12.03;;
179;SDS011;78;48.788;9.010;2022-12-07T06:06:40;29.27;;;10.87;;
179;SDS011;78;48.788;9.010;2022-12-07T06:09:06;32.53;;;10.37;;
179;SDS011;78;48.788;9.010;2022-12-07T06:11:32;30.60;;;10.77;;
179;SDS011;78;48.788;9.010;2022-12-07T06:14:17;29.47;;;10.60;;
179;SDS011;78;48.788;9.010;2022-12-07T06:16:43;29.67;;;10.37;;
179;SDS011;78;48.788;9.010;2022-12-07T06:19:10;30.03;;;10.17;;
179;SDS011;78;48.788;9.010;2022-12-07T06:21:36;29.63;;;10.73;;
179;SDS011;78;48.788;9.010;2022-12-07T06:24:02;28.07;;;9.63;;
179;SDS011;78;48.788;9.010;2022-12-07T06:26:28;29.77;;;9.97;;
179;SDS011;78;48.788;9.010;2022-12-07T06:28:54;33.47;;;11.50;;
179;SDS011;78;48.788;9.010;2022-12-07T06:31:20;30.07;;;10.50;;
179;SDS011;78;48.788;9.010;2022-12-07T06:33:47;32.07;;;9.90;;
179;SDS011;78;48.788;9.010;2022-12-07T06:36:13;27.20;;;8.83;;
179;SDS011;78;48.788;9.010;2022-12-07T06:38:40;28.30;;;9.20;;
179;SDS011;78;48.788;9.010;2022-12-07T06:41:06;25.37;;;8.77;;
179;SDS011;78;48.788;9.010;2022-12-07T06:43:32;28.10;;;8.83;;
179;SDS011;78;48.788;9.010;2022-12-07T06:45:59;23.40;;;7.83;;
179;SDS011;78;48.788;9.010;2022-12-07T06:48:25;25.00;;;8.30;;
179;SDS011;78;48.788;9.010;2022-12-07T06:50:52;24.50;;;8.30;;
179;SDS011;78;48.788;9.010;2022-12-07T06:53:18;26.10;;;7.77;;
179;SDS011;78;48.788;9.010;2022-12-07T06:55:44;24.50;;;8.50;;
179;SDS011;78;48.788;9.010;2022-12-07T06:58:11;26.43;;;8.83;;
179;SDS011;78;48.788;9.010;2022-12-07T07:00:37;24.07;;;7.97;;
179;SDS011;78;48.788;9.010;2022-12-07T07:03:03;23.83;;;7.90;;
179;SDS011;78;48.788;9.010;2022-12-07T07:05:29;21.73;;;7.00;;
179;SDS011;78;48.788;9.010;2022-12-07T07:07:56;23.40;;;7.23;;
179;SDS011;78;48.788;9.010;2022-12-07T07:10:22;24.73;;;7.00;;
179;SDS011;78;48.788;9.010;2022-12-07T07:12:49;22.57;;;6.77;;
179;SDS011;78;48.788;9.010;2022-12-07T07:15:15;28.60;;;7.40;;
179;SDS011;78;48.788;9.010;2022-12-07T07:17:41;22.97;;;7.27;;
179;SDS011;78;48.788;9.010;2022-12-07T07:20:08;23.07;;;7.47;;
179;SDS011;78;48.788;9.010;2022-12-07T07:22:34;22.03;;;7.10;;
179;SDS011;78;48.788;9.010;2022-12-07T07:25:00;26.10;;;7.83;;
179;SDS011;78;48.788;9.010;2022-12-07T07:27:26;23.23;;;7.40;;
179;SDS011;78;48.788;9.010;2022-12-07T07:29:53;23.40;;;7.13;;
179;SDS011;78;48.788;9.010;2022-12-07T07:32:19;23.00;;;7.43;;
179;SDS011;78;48.788;9.010;2022-12-07T07:34:46;22.37;;;7.27;;
179;SDS011;78;48.788;9.010;2022-12-07T07:37:13;22.57;;;7.47;;
179;SDS011;78;48.788;9.010;2022-12-07T07:39:39;22.93;;;7.20;;
179;SDS011;78;48.788;9.010;2022-12-07T07:42:05;25.40;;;7.83;;
179;SDS011;78;48.788;9.010;2022-12-07T07:44:32;27.73;;;8.63;;
179;SDS011;78;48.788;9.010;2022-12-07T07:46:58;28.23;;;8.57;;
179;SDS011;78;48.788;9.010;2022-12-07T07:49:24;25.90;;;9.03;;
179;SDS011;78;48.788;9.010;2022-12-07T07:51:50;24.30;;;8.00;;
179;SDS011;78;48.788;9.010;2022-12-07T07:54:16;25.57;;;8.00;;
179;SDS011;78;48.788;9.010;2022-12-07T07:56:42;25.53;;;8.07;;
179;SDS011;78;48.788;9.010;2022-12-07T07:59:08;28.00;;;8.00;;
179;SDS011;78;48.788;9.010;2022-12-07T08:01:34;24.93;;;7.87;;
179;SDS011;78;48.788;9.010;2022-12-07T08:04:00;27.97;;;7.90;;
179;SDS011;78;48.788;9.010;2022-12-07T08:06:26;26.77;;;8.40;;
179;SDS011;78;48.788;9.010;2022-12-07T08:08:52;25.50;;;8.30;;
179;SDS011;78;48.788;9.010;2022-12-07T08:11:18;24.60;;;7.97;;
179;SDS011;78;48.788;9.010;2022-12-07T08:13:47;37.10;;;8.17;;
179;SDS011;78;48.788;9.010;2022-12-07T08:16:13;25.90;;;9.10;;
179;SDS011;78;48.788;9.010;2022-12-07T08:18:40;24.47;;;7.90;;
179;SDS011;78;48.788;9.010;2022-12-07T08:21:07;24.73;;;8.00;;
179;SDS011;78;48.788;9.010;2022-12-07T08:23:33;27.07;;;8.17;;
179;SDS011;78;48.788;9.010;2022-12-07T08:26:00;24.17;;;7.77;;
179;SDS011;78;48.788;9.010;2022-12-07T08:28:26;28.43;;;8.53;;
179;SDS011;78;48.788;9.010;2022-12-07T08:30:58;26.10;;;7.30;;
179;SDS011;78;48.788;9.010;2022-12-07T08:33:25;26.43;;;7.50;;
179;SDS011;78;48.788;9.010;2022-12-07T08:35:51;26.80;;;8.63;;
179;SDS011;78;48.788;9.010;2022-12-07T08:38:17;31.93;;;9.57;;
179;SDS011;78;48.788;9.010;2022-12-07T08:40:43;31.97;;;9.20;;
179;SDS011;78;48.788;9.010;2022-12-07T08:43:09;53.13;;;18.43;;
179;SDS011;78;48.788;9.010;2022-12-07T08:45:35;23.23;;;7.13;;
179;SDS011;78;48.788;9.010;2022-12-07T08:50:27;23.50;;;6.00;;
179;SDS011;78;48.788;9.010;2022-12-07T08:52:55;21.63;;;6.63;;
179;SDS011;78;48.788;9.010;2022-12-07T08:55:22;24.97;;;6.33;;
179;SDS011;78;48.788;9.010;2022-12-07T08:57:48;20.03;;;5.87;;
179;SDS011;78;48.788;9.010;2022-12-07T09:00:15;21.07;;;6.37;;
179;SDS011;78;48.788;9.010;2022-12-07T09:02:44;20.10;;;5.83;;
179;SDS011;78;48.788;9.010;2022-12-07T09:05:10;21.27;;;5.90;;
179;SDS011;78;48.788;9.010;2022-12-07T09:07:36;22.30;;;6.80;;
179;SDS011;78;48.788;9.010;2022-12-07T09:10:03;20.70;;;5.97;;
179;SDS011;78;48.788;9.010;2022-12-07T09:12:29;20.00;;;5.47;;
179;SDS011;78;48.788;9.010;2022-12-07T09:14:55;20.00;;;6.03;;
179;SDS011;78;48.788;9.010;2022-12-07T09:17:21;20.03;;;5.77;;
179;SDS011;78;48.788;9.010;2022-12-07T09:19:47;20.60;;;6.17;;
179;SDS011;78;48.788;9.010;2022-12-07T09:22:15;21.30;;;6.20;;
179;SDS011;78;48.788;9.010;2022-12-07T09:24:41;22.50;;;6.17;;
179;SDS011;78;48.788;9.010;2022-12-07T09:27:08;21.07;;;6.13;;
179;SDS011;78;48.788;9.010;2022-12-07T09:29:34;23.70;;;6.20;;
179;SDS011;78;48.788;9.010;2022-12-07T09:32:00;22.23;;;5.90;;
179;SDS011;78;48.788;9.010;2022-12-07T09:34:26;22.13;;;5.73;;
179;SDS011;78;48.788;9.010;2022-12-07T09:36:52;22.93;;;6.10;;
179;SDS011;78;48.788;9.010;2022-12-07T09:39:18;23.10;;;6.27;;
179;SDS011;78;48.788;9.010;2022-12-07T09:41:44;22.00;;;6.60;;
179;SDS011;78;48.788;9.010;2022-12-07T09:44:18;22.93;;;6.20;;
179;SDS011;78;48.788;9.010;2022-12-07T09:46:46;21.47;;;6.60;;
179;SDS011;78;48.788;9.010;2022-12-07T09:49:13;22.20;;;6.57;;
179;SDS011;78;48.788;9.010;2022-12-07T09:51:40;24.70;;;6.30;;
179;SDS011;78;48.788;9.010;2022-12-07T09:54:07;23.70;;;6.80;;
179;SDS011;78;48.788;9.010;2022-12-07T09:56:34;23.83;;;6.70;;
179;SDS011;78;48.788;9.010;2022-12-07T09:59:01;23.63;;;6.80;;
179;SDS011;78;48.788;9.010;2022-12-07T10:01:29;22.87;;;6.97;;
179;SDS011;78;48.788;9.010;2022-12-07T10:03:59;22.47;;;6.33;;
179;SDS011;78;48.788;9.010;2022-12-07T10:06:26;21.20;;;6.30;;
179;SDS011;78;48.788;9.010;2022-12-07T10:08:52;25.63;;;6.53;;
179;SDS011;78;48.788;9.010;2022-12-07T10:11:18;20.63;;;5.53;;
179;SDS011;78;48.788;9.010;2022-12-07T10:13:46;20.90;;;6.40;;
179;SDS011;78;48.788;9.010;2022-12-07T10:18:52;22.70;;;6.30;;
179;SDS011;78;48.788;9.010;2022-12-07T10:21:25;28.10;;;6.17;;
179;SDS011;78;48.788;9.010;2022-12-07T10:26:41;21.87;;;6.80;;
179;SDS011;78;48.788;9.010;2022-12-07T10:31:42;23.13;;;6.73;;
179;SDS011;78;48.788;9.010;2022-12-07T10:34:31;20.87;;;6.20;;
179;SDS011;78;48.788;9.010;2022-12-07T10:37:13;21.97;;;7.10;;
179;SDS011;78;48.788;9.010;2022-12-07T10:42:16;21.13;;;5.93;;
179;SDS011;78;48.788;9.010;2022-12-07T10:44:43;30.23;;;11.23;;
179;SDS011;78;48.788;9.010;2022-12-07T10:54:56;20.47;;;5.90;;
179;SDS011;78;48.788;9.010;2022-12-07T11:00:15;19.30;;;5.43;;
179;SDS011;78;48.788;9.010;2022-12-07T11:02:58;19.80;;;6.13;;
179;SDS011;78;48.788;9.010;2022-12-07T11:05:27;19.67;;;5.40;;
179;SDS011;78;48.788;9.010;2022-12-07T11:08:05;17.27;;;4.37;;
179;SDS011;78;48.788;9.010;2022-12-07T11:10:47;18.07;;;4.70;;
179;SDS011;78;48.788;9.010;2022-12-07T11:15:51;17.13;;;4.57;;
179;SDS011;78;48.788;9.010;2022-12-07T11:23:49;17.50;;;4.20;;
179;SDS011;78;48.788;9.010;2022-12-07T11:34:07;18.37;;;4.97;;
179;SDS011;78;48.788;9.010;2022-12-07T11:36:42;20.07;;;5.53;;
179;SDS011;78;48.788;9.010;2022-12-07T11:39:52;19.77;;;5.73;;
179;SDS011;78;48.788;9.010;2022-12-07T11:42:14;17.60;;;4.40;;
179;SDS011;78;48.788;9.010;2022-12-07T11:49:47;22.50;;;7.80;;
179;SDS011;78;48.788;9.010;2022-12-07T11:54:52;31.37;;;12.23;;
179;SDS011;78;48.788;9.010;2022-12-07T11:57:30;32.27;;;12.50;;
179;SDS011;78;48.788;9.010;2022-12-07T11:59:59;27.33;;;10.03;;
179;SDS011;78;48.788;9.010;2022-12-07T12:02:28;26.37;;;9.93;;
179;SDS011;78;48.788;9.010;2022-12-07T12:07:35;29.47;;;10.63;;
179;SDS011;78;48.788;9.010;2022-12-07T12:10:06;38.87;;;13.23;;
179;SDS011;78;48.788;9.010;2022-12-07T12:12:58;29.87;;;10.83;;
179;SDS011;78;48.788;9.010;2022-12-07T12:15:35;34.60;;;11.93;;
179;SDS011;78;48.788;9.010;2022-12-07T12:18:11;32.10;;;10.73;;
179;SDS011;78;48.788;9.010;2022-12-07T12:20:46;38.97;;;12.27;;
179;SDS011;78;48.788;9.010;2022-12-07T12:33:50;27.33;;;9.23;;
179;SDS011;78;48.788;9.010;2022-12-07T12:39:10;25.40;;;8.27;;
179;SDS011;78;48.788;9.010;2022-12-07T12:51:47;30.57;;;10.07;;
179;SDS011;78;48.788;9.010;2022-12-07T12:54:20;27.17;;;9.10;;
179;SDS011;78;48.788;9.010;2022-12-07T12:59:34;25.13;;;7.07;;
179;SDS011;78;48.788;9.010;2022-12-07T13:10:04;23.50;;;7.93;;
179;SDS011;78;48.788;9.010;2022-12-07T13:12:30;24.83;;;8.13;;
179;SDS011;78;48.788;9.010;2022-12-07T13:14:57;23.77;;;7.30;;
179;SDS011;78;48.788;9.010;2022-12-07T13:19:56;19.83;;;5.63;;
179;SDS011;78;48.788;9.010;2022-12-07T13:27:30;21.83;;;6.53;;
179;SDS011;78;48.788;9.010;2022-12-07T13:29:56;20.00;;;6.80;;
179;SDS011;78;48.788;9.010;2022-12-07T13:32:24;21.10;;;5.60;;
179;SDS011;78;48.788;9.010;2022-12-07T13:34:50;24.87;;;6.53;;
179;SDS011;78;48.788;9.010;2022-12-07T13:37:25;19.23;;;5.43;;
179;SDS011;78;48.788;9.010;2022-12-07T13:40:12;20.93;;;6.13;;
179;SDS011;78;48.788;9.010;2022-12-07T13:42:43;27.70;;;7.23;;
179;SDS011;78;48.788;9.010;2022-12-07T13:45:24;68.93;;;19.17;;
179;SDS011;78;48.788;9.010;2022-12-07T13:48:35;70.40;;;23.10;;
179;SDS011;78;48.788;9.010;2022-12-07T13:50:59;25.80;;;7.90;;
179;SDS011;78;48.788;9.010;2022-12-07T13:53:26;34.17;;;13.20;;
179;SDS011;78;48.788;9.010;2022-12-07T13:55:56;37.33;;;10.83;;
179;SDS011;78;48.788;9.010;2022-12-07T13:58:23;28.20;;;10.43;;
179;SDS011;78;48.788;9.010;2022-12-07T14:00:49;26.30;;;9.47;;
179;SDS011;78;48.788;9.010;2022-12-07T14:05:42;24.40;;;8.70;;
179;SDS011;78;48.788;9.010;2022-12-07T14:15:51;24.37;;;8.50;;
179;SDS011;78;48.788;9.010;2022-12-07T14:18:24;24.43;;;8.00;;
179;SDS011;78;48.788;9.010;2022-12-07T14:20:52;41.07;;;15.00;;
179;SDS011;78;48.788;9.010;2022-12-07T14:23:27;28.27;;;10.10;;
179;SDS011;78;48.788;9.010;2022-12-07T14:25:53;26.70;;;10.30;;
179;SDS011;78;48.788;9.010;2022-12-07T14:28:32;27.90;;;9.93;;
179;SDS011;78;48.788;9.010;2022-12-07T14:30:59;34.80;;;12.90;;
179;SDS011;78;48.788;9.010;2022-12-07T14:33:26;34.50;;;12.87;;
179;SDS011;78;48.788;9.010;2022-12-07T14:35:52;27.07;;;9.60;;
179;SDS011;78;48.788;9.010;2022-12-07T14:38:20;37.57;;;14.73;;
179;SDS011;78;48.788;9.010;2022-12-07T14:40:48;38.00;;;13.57;;
179;SDS011;78;48.788;9.010;2022-12-07T14:43:15;44.07;;;16.60;;
179;SDS011;78;48.788;9.010;2022-12-07T14:45:41;36.70;;;13.47;;
179;SDS011;78;48.788;9.010;2022-12-07T14:48:08;35.00;;;14.40;;
179;SDS011;78;48.788;9.010;2022-12-07T14:50:37;29.83;;;9.67;;
179;SDS011;78;48.788;9.010;2022-12-07T14:53:13;30.93;;;11.10;;
179;SDS011;78;48.788;9.010;2022-12-07T14:55:40;31.57;;;11.50;;
179;SDS011;78;48.788;9.010;2022-12-07T14:58:06;37.47;;;13.70;;
179;SDS011;78;48.788;9.010;2022-12-07T15:00:32;39.10;;;15.20;;
179;SDS011;78;48.788;9.010;2022-12-07T15:02:59;64.90;;;24.80;;
179;SDS011;78;48.788;9.010;2022-12-07T15:05:25;40.70;;;17.33;;
179;SDS011;78;48.788;9.010;2022-12-07T15:07:51;32.43;;;12.67;;
179;SDS011;78;48.788;9.010;2022-12-07T15:10:18;29.77;;;11.63;;
179;SDS011;78;48.788;9.010;2022-12-07T15:12:45;31.03;;;11.30;;
179;SDS011;78;48.788;9.010;2022-12-07T15:15:11;34.20;;;13.00;;
179;SDS011;78;48.788;9.010;2022-12-07T15:17:38;27.83;;;10.10;;
179;SDS011;78;48.788;9.010;2022-12-07T15:20:04;41.00;;;13.80;;
179;SDS011;78;48.788;9.010;2022-12-07T15:22:30;39.17;;;12.17;;
179;SDS011;78;48.788;9.010;2022-12-07T15:24:57;32.27;;;12.70;;
179;SDS011;78;48.788;9.010;2022-12-07T15:27:23;29.60;;;11.10;;
179;SDS011;78;48.788;9.010;2022-12-07T15:29:49;33.73;;;13.17;;
179;SDS011;78;48.788;9.010;2022-12-07T15:32:15;38.80;;;15.13;;
179;SDS011;78;48.788;9.010;2022-12-07T15:34:42;35.70;;;13.70;;
179;SDS011;78;48.788;9.010;2022-12-07T15:37:08;38.20;;;15.40;;
179;SDS011;78;48.788;9.010;2022-12-07T15:39:35;43.40;;;17.23;;
179;SDS011;78;48.788;9.010;2022-12-07T15:42:01;39.80;;;15.77;;
179;SDS011;78;48.788;9.010;2022-12-07T15:44:28;36.57;;;14.20;;
179;SDS011;78;48.788;9.010;2022-12-07T15:47:13;40.50;;;15.70;;
179;SDS011;78;48.788;9.010;2022-12-07T15:49:39;44.37;;;17.60;;
179;SDS011;78;48.788;9.010;2022-12-07T15:52:07;40.93;;;16.70;;
179;SDS011;78;48.788;9.010;2022-12-07T15:54:33;55.40;;;22.73;;
179;SDS011;78;48.788;9.010;2022-12-07T15:56:59;40.97;;;15.73;;
179;SDS011;78;48.788;9.010;2022-12-07T15:59:25;41.20;;;16.40;;
179;SDS011;78;48.788;9.010;2022-12-07T16:01:52;49.63;;;21.13;;
179;SDS011;78;48.788;9.010;2022-12-07T16:04:18;47.03;;;17.67;;
179;SDS011;78;48.788;9.010;2022-12-07T16:06:45;41.10;;;17.00;;
179;SDS011;78;48.788;9.010;2022-12-07T16:09:11;46.23;;;18.70;;
179;SDS011;78;48.788;9.010;2022-12-07T16:11:38;50.80;;;20.90;;
179;SDS011;78;48.788;9.010;2022-12-07T16:14:04;42.17;;;17.40;;
179;SDS011;78;48.788;9.010;2022-12-07T16:16:30;49.70;;;22.03;;
179;SDS011;78;48.788;9.010;2022-12-07T16:18:56;45.33;;;18.40;;
179;SDS011;78;48.788;9.010;2022-12-07T16:21:23;55.83;;;20.43;;
179;SDS011;78;48.788;9.010;2022-12-07T16:23:48;55.80;;;21.20;;
179;SDS011;78;48.788;9.010;2022-12-07T16:26:16;54.80;;;22.00;;
179;SDS011;78;48.788;9.010;2022-12-07T16:28:42;61.17;;;23.80;;
179;SDS011;78;48.788;9.010;2022-12-07T16:31:10;52.00;;;21.20;;
179;SDS011;78;48.788;9.010;2022-12-07T16:33:37;62.90;;;26.30;;
179;SDS011;78;48.788;9.010;2022-12-07T16:36:03;54.10;;;20.63;;
179;SDS011;78;48.788;9.010;2022-12-07T16:38:30;50.93;;;20.80;;
179;SDS011;78;48.788;9.010;2022-12-07T16:40:56;53.93;;;21.63;;
179;SDS011;78;48.788;9.010;2022-12-07T16:43:22;61.17;;;21.57;;
179;SDS011;78;48.788;9.010;2022-12-07T16:45:48;54.93;;;22.13;;
179;SDS011;78;48.788;9.010;2022-12-07T16:48:14;48.97;;;19.03;;
179;SDS011;78;48.788;9.010;2022-12-07T16:50:41;43.87;;;16.23;;
179;SDS011;78;48.788;9.010;2022-12-07T16:53:08;49.10;;;18.37;;
179;SDS011;78;48.788;9.010;2022-12-07T16:55:45;45.93;;;17.63;;
179;SDS011;78;48.788;9.010;2022-12-07T16:58:13;43.50;;;17.33;;
179;SDS011;78;48.788;9.010;2022-12-07T17:00:40;42.13;;;16.17;;
179;SDS011;78;48.788;9.010;2022-12-07T17:03:07;38.97;;;14.80;;
179;SDS011;78;48.788;9.010;2022-12-07T17:05:36;55.70;;;16.83;;
179;SDS011;78;48.788;9.010;2022-12-07T17:08:03;41.30;;;14.77;;
179;SDS011;78;48.788;9.010;2022-12-07T17:10:29;48.70;;;19.50;;
179;SDS011;78;48.788;9.010;2022-12-07T17:12:56;38.83;;;14.43;;
179;SDS011;78;48.788;9.010;2022-12-07T17:15:22;39.03;;;14.20;;
179;SDS011;78;48.788;9.010;2022-12-07T17:17:58;36.80;;;12.70;;
179;SDS011;78;48.788;9.010;2022-12-07T17:20:25;40.40;;;16.10;;
179;SDS011;78;48.788;9.010;2022-12-07T17:22:51;50.40;;;20.37;;
179;SDS011;78;48.788;9.010;2022-12-07T17:25:18;38.57;;;14.87;;
179;SDS011;78;48.788;9.010;2022-12-07T17:27:44;38.70;;;16.40;;
179;SDS011;78;48.788;9.010;2022-12-07T17:30:12;37.67;;;14.13;;
179;SDS011;78;48.788;9.010;2022-12-07T17:32:38;39.43;;;14.23;;
179;SDS011;78;48.788;9.010;2022-12-07T17:35:05;42.60;;;17.53;;
179;SDS011;78;48.788;9.010;2022-12-07T17:37:32;46.67;;;16.20;;
179;SDS011;78;48.788;9.010;2022-12-07T17:39:58;47.93;;;19.63;;
179;SDS011;78;48.788;9.010;2022-12-07T17:42:24;39.80;;;16.37;;
179;SDS011;78;48.788;9.010;2022-12-07T17:45:04;40.80;;;17.27;;
179;SDS011;78;48.788;9.010;2022-12-07T17:47:30;40.00;;;13.30;;
179;SDS011;78;48.788;9.010;2022-12-07T17:49:57;41.97;;;17.47;;
179;SDS011;78;48.788;9.010;2022-12-07T17:52:23;40.20;;;17.60;;
179;SDS011;78;48.788;9.010;2022-12-07T17:55:07;43.77;;;17.57;;
179;SDS011;78;48.788;9.010;2022-12-07T17:57:33;45.73;;;17.80;;